Aérodrome :
LOGIN :

S'inscrire | Disclaimer

   EN    FR    IT 

 










Légende :    VFR   VFR Marginal   IFR   IFR Intensif   IFR Très Intensif
Visi : 
Plafond : 
>= 8 km
>= 3000ft
5 à 8 km
1000 à 3000 ft
1500m à 5 km
500 à 1000 ft
800 à 1500m
200 à 500 ft
< 800m
< 200 ft
Symboles :   Orages  Brouillard  Fortes neiges  Fortes précipitations  Vent > 20 kt
SIGMETs :   Divers  Orages  Givrage  Turbulence  Onde Orograph.  Cendres Volcan.







- Altitude de l'aérodrome : 1830 ft


EBLB - Butgenbach Elsenborn

DERNIER METAR :
  • 190955Z AUTO 26005G16KT 9999 BKN015/// 05/02 Q1020 WHT

METARs EXPIRÉS :
  • 190947Z AUTO 25006KT 9999 BKN016/// 05/01 Q1019 WHT
  • 190925Z AUTO 28006KT 9999 BKN014/// 04/01 Q1020 GRN
  • 190855Z AUTO 27006KT 9999 BKN008/// 04/03 Q1019 GRN
  • 190825Z AUTO 26004KT 7000 OVC004/// 04/03 Q1019 YLO
  • 190755Z AUTO 25003KT 2100 BR OVC002/// 04/03 Q1019 AMB
  • 190725Z AUTO VRB02KT 3800 BR OVC006/// 04/03 Q1018 YLO

Prévision TAF périmée.
Pas de NOTAMs connus pour ce terrain.



MET'MAP, la Météo Aéronautique d'un coup d'oeil ! - Copyright ORBIFLY Décembre 2007 - Disclaimer

ORBIFLY MET'MAP TEAM :

Programmation & Développement : Alexandra Zaïnal
Conception & Développement : Baudouin d'Aumeries
Co-Programmation & Développement : Marc-Olivier Méhu
Soutien technique & logistique : Manuel Goepfert

Contact : metmap@orbifly.com




SOURCES & CREDITS :

   NOAA